Terminal Aerodrome Forecast
Issued by NWS

Home | Current Version | Previous Version | Text Only | Print | Product List | Glossary On
Versions: 1 2 3 4 5 6 7 8 9 10 11 12 13 14 15 16 17 18
000
FTUS43 KAPX 212320
TAFTVC
TAF
KTVC 212320Z 2200/2224 VRB03KT P6SM -SHRA OVC050
     FM220600 VRB03KT P6SM VCSH OVC025
     FM221000 VRB03KT P6SM OVC015
     FM221400 03005KT P6SM BKN025
     FM221800 02006KT P6SM SCT050 SCT250=

USA.gov is the U.S. government's official web portal to all federal, state and local government web resources and services.